sensor_id;sensor_type;location;lat;lon;timestamp;P1;durP1;ratioP1;P2;durP2;ratioP2
25419;SDS011;13354;48.174;11.566;2023-06-10T00:02:25;3.97;;;3.58;;
25419;SDS011;13354;48.174;11.566;2023-06-10T00:04:51;5.18;;;3.97;;
25419;SDS011;13354;48.174;11.566;2023-06-10T00:07:17;4.00;;;3.60;;
25419;SDS011;13354;48.174;11.566;2023-06-10T00:09:43;6.25;;;4.18;;
25419;SDS011;13354;48.174;11.566;2023-06-10T00:12:08;4.75;;;4.35;;
25419;SDS011;13354;48.174;11.566;2023-06-10T00:14:37;5.65;;;4.22;;
25419;SDS011;13354;48.174;11.566;2023-06-10T00:17:03;5.55;;;4.32;;
25419;SDS011;13354;48.174;11.566;2023-06-10T00:19:29;4.82;;;4.32;;
25419;SDS011;13354;48.174;11.566;2023-06-10T00:21:58;5.80;;;4.50;;
25419;SDS011;13354;48.174;11.566;2023-06-10T00:24:24;4.90;;;4.45;;
25419;SDS011;13354;48.174;11.566;2023-06-10T00:26:50;5.20;;;4.70;;
25419;SDS011;13354;48.174;11.566;2023-06-10T00:29:15;5.60;;;4.68;;
25419;SDS011;13354;48.174;11.566;2023-06-10T00:31:41;7.97;;;4.85;;
25419;SDS011;13354;48.174;11.566;2023-06-10T00:34:06;5.38;;;4.70;;
25419;SDS011;13354;48.174;11.566;2023-06-10T00:36:32;5.68;;;4.82;;
25419;SDS011;13354;48.174;11.566;2023-06-10T00:38:58;6.43;;;5.13;;
25419;SDS011;13354;48.174;11.566;2023-06-10T00:41:23;5.22;;;4.72;;
25419;SDS011;13354;48.174;11.566;2023-06-10T00:43:49;6.40;;;5.10;;
25419;SDS011;13354;48.174;11.566;2023-06-10T00:46:14;5.93;;;5.25;;
25419;SDS011;13354;48.174;11.566;2023-06-10T00:48:40;6.70;;;5.47;;
25419;SDS011;13354;48.174;11.566;2023-06-10T00:51:08;6.22;;;5.55;;
25419;SDS011;13354;48.174;11.566;2023-06-10T00:53:34;5.75;;;5.20;;
25419;SDS011;13354;48.174;11.566;2023-06-10T00:56:01;5.60;;;5.03;;
25419;SDS011;13354;48.174;11.566;2023-06-10T00:58:27;5.20;;;4.72;;
25419;SDS011;13354;48.174;11.566;2023-06-10T01:00:52;7.15;;;5.43;;
25419;SDS011;13354;48.174;11.566;2023-06-10T01:03:18;6.18;;;5.40;;
25419;SDS011;13354;48.174;11.566;2023-06-10T01:05:43;6.30;;;5.70;;
25419;SDS011;13354;48.174;11.566;2023-06-10T01:13:20;6.32;;;5.70;;
25419;SDS011;13354;48.174;11.566;2023-06-10T01:15:48;6.45;;;5.85;;
25419;SDS011;13354;48.174;11.566;2023-06-10T01:18:15;6.07;;;5.50;;
25419;SDS011;13354;48.174;11.566;2023-06-10T01:20:42;6.93;;;5.80;;
25419;SDS011;13354;48.174;11.566;2023-06-10T01:23:09;6.18;;;5.57;;
25419;SDS011;13354;48.174;11.566;2023-06-10T01:25:39;6.70;;;5.95;;
25419;SDS011;13354;48.174;11.566;2023-06-10T01:33:19;7.10;;;5.97;;
25419;SDS011;13354;48.174;11.566;2023-06-10T01:35:51;6.43;;;5.80;;
25419;SDS011;13354;48.174;11.566;2023-06-10T01:38:18;7.95;;;5.78;;
25419;SDS011;13354;48.174;11.566;2023-06-10T01:40:45;6.95;;;5.90;;
25419;SDS011;13354;48.174;11.566;2023-06-10T01:43:12;8.25;;;6.40;;
25419;SDS011;13354;48.174;11.566;2023-06-10T01:45:38;6.43;;;5.72;;
25419;SDS011;13354;48.174;11.566;2023-06-10T01:48:03;6.85;;;6.15;;
25419;SDS011;13354;48.174;11.566;2023-06-10T01:50:28;6.47;;;5.85;;
25419;SDS011;13354;48.174;11.566;2023-06-10T01:52:54;5.90;;;5.25;;
25419;SDS011;13354;48.174;11.566;2023-06-10T01:55:19;6.63;;;5.95;;
25419;SDS011;13354;48.174;11.566;2023-06-10T01:57:44;8.52;;;5.90;;
25419;SDS011;13354;48.174;11.566;2023-06-10T02:00:10;7.50;;;6.25;;
25419;SDS011;13354;48.174;11.566;2023-06-10T02:02:36;6.90;;;5.88;;
25419;SDS011;13354;48.174;11.566;2023-06-10T02:05:01;6.63;;;6.03;;
25419;SDS011;13354;48.174;11.566;2023-06-10T02:07:26;9.05;;;5.90;;
25419;SDS011;13354;48.174;11.566;2023-06-10T02:09:52;6.53;;;5.80;;
25419;SDS011;13354;48.174;11.566;2023-06-10T02:12:17;7.15;;;5.63;;
25419;SDS011;13354;48.174;11.566;2023-06-10T02:14:42;6.22;;;5.65;;
25419;SDS011;13354;48.174;11.566;2023-06-10T02:17:07;6.72;;;6.07;;
25419;SDS011;13354;48.174;11.566;2023-06-10T02:19:37;6.43;;;5.82;;
25419;SDS011;13354;48.174;11.566;2023-06-10T02:22:05;6.93;;;6.25;;
25419;SDS011;13354;48.174;11.566;2023-06-10T02:24:30;6.97;;;6.28;;
25419;SDS011;13354;48.174;11.566;2023-06-10T02:26:56;6.50;;;5.82;;
25419;SDS011;13354;48.174;11.566;2023-06-10T02:29:21;6.82;;;6.10;;
25419;SDS011;13354;48.174;11.566;2023-06-10T02:31:46;7.17;;;5.83;;
25419;SDS011;13354;48.174;11.566;2023-06-10T02:34:12;7.25;;;6.55;;
25419;SDS011;13354;48.174;11.566;2023-06-10T02:36:37;6.60;;;6.00;;
25419;SDS011;13354;48.174;11.566;2023-06-10T02:39:02;7.85;;;6.53;;
25419;SDS011;13354;48.174;11.566;2023-06-10T02:41:29;7.00;;;6.30;;
25419;SDS011;13354;48.174;11.566;2023-06-10T02:43:54;6.55;;;5.68;;
25419;SDS011;13354;48.174;11.566;2023-06-10T02:46:19;7.55;;;6.22;;
25419;SDS011;13354;48.174;11.566;2023-06-10T02:48:45;8.10;;;6.10;;
25419;SDS011;13354;48.174;11.566;2023-06-10T02:51:11;7.32;;;6.35;;
25419;SDS011;13354;48.174;11.566;2023-06-10T02:53:36;7.65;;;6.95;;
25419;SDS011;13354;48.174;11.566;2023-06-10T02:56:02;8.15;;;6.78;;
25419;SDS011;13354;48.174;11.566;2023-06-10T02:58:27;7.05;;;6.35;;
25419;SDS011;13354;48.174;11.566;2023-06-10T03:00:52;7.32;;;6.63;;
25419;SDS011;13354;48.174;11.566;2023-06-10T03:03:18;7.40;;;6.60;;
25419;SDS011;13354;48.174;11.566;2023-06-10T03:05:43;7.22;;;6.53;;
25419;SDS011;13354;48.174;11.566;2023-06-10T03:08:08;8.10;;;6.57;;
25419;SDS011;13354;48.174;11.566;2023-06-10T03:10:34;8.48;;;7.18;;
25419;SDS011;13354;48.174;11.566;2023-06-10T03:12:59;7.45;;;6.60;;
25419;SDS011;13354;48.174;11.566;2023-06-10T03:15:25;7.60;;;6.78;;
25419;SDS011;13354;48.174;11.566;2023-06-10T03:17:50;7.28;;;6.60;;
25419;SDS011;13354;48.174;11.566;2023-06-10T03:20:15;7.60;;;6.90;;
25419;SDS011;13354;48.174;11.566;2023-06-10T03:22:41;8.23;;;7.07;;
25419;SDS011;13354;48.174;11.566;2023-06-10T03:25:07;7.68;;;6.88;;
25419;SDS011;13354;48.174;11.566;2023-06-10T03:27:38;7.45;;;6.85;;
25419;SDS011;13354;48.174;11.566;2023-06-10T03:30:04;8.70;;;7.90;;
25419;SDS011;13354;48.174;11.566;2023-06-10T03:32:30;9.52;;;7.82;;
25419;SDS011;13354;48.174;11.566;2023-06-10T03:34:55;8.13;;;7.30;;
25419;SDS011;13354;48.174;11.566;2023-06-10T03:37:22;8.20;;;7.30;;
25419;SDS011;13354;48.174;11.566;2023-06-10T03:39:47;8.23;;;7.38;;
25419;SDS011;13354;48.174;11.566;2023-06-10T03:42:13;8.90;;;7.97;;
25419;SDS011;13354;48.174;11.566;2023-06-10T03:44:38;8.25;;;7.55;;
25419;SDS011;13354;48.174;11.566;2023-06-10T03:47:03;13.32;;;8.35;;
25419;SDS011;13354;48.174;11.566;2023-06-10T03:49:29;9.20;;;8.20;;
25419;SDS011;13354;48.174;11.566;2023-06-10T03:51:55;11.02;;;9.07;;
25419;SDS011;13354;48.174;11.566;2023-06-10T03:54:21;9.23;;;7.68;;
25419;SDS011;13354;48.174;11.566;2023-06-10T03:56:46;9.80;;;7.70;;
25419;SDS011;13354;48.174;11.566;2023-06-10T03:59:13;9.00;;;8.10;;
25419;SDS011;13354;48.174;11.566;2023-06-10T04:01:38;8.65;;;7.75;;
25419;SDS011;13354;48.174;11.566;2023-06-10T04:04:06;9.15;;;8.27;;
25419;SDS011;13354;48.174;11.566;2023-06-10T04:06:31;8.90;;;8.02;;
25419;SDS011;13354;48.174;11.566;2023-06-10T04:08:56;8.90;;;8.07;;
25419;SDS011;13354;48.174;11.566;2023-06-10T04:11:22;8.95;;;8.05;;
25419;SDS011;13354;48.174;11.566;2023-06-10T04:13:51;9.60;;;8.23;;
25419;SDS011;13354;48.174;11.566;2023-06-10T04:16:17;9.82;;;8.07;;
25419;SDS011;13354;48.174;11.566;2023-06-10T04:18:42;9.27;;;8.38;;
25419;SDS011;13354;48.174;11.566;2023-06-10T04:21:07;9.93;;;8.38;;
25419;SDS011;13354;48.174;11.566;2023-06-10T04:23:34;9.27;;;8.15;;
25419;SDS011;13354;48.174;11.566;2023-06-10T04:26:01;8.57;;;7.78;;
25419;SDS011;13354;48.174;11.566;2023-06-10T04:28:27;8.82;;;8.02;;
25419;SDS011;13354;48.174;11.566;2023-06-10T04:30:52;9.00;;;7.90;;
25419;SDS011;13354;48.174;11.566;2023-06-10T04:33:18;9.23;;;8.27;;
25419;SDS011;13354;48.174;11.566;2023-06-10T04:35:43;9.60;;;8.70;;
25419;SDS011;13354;48.174;11.566;2023-06-10T04:38:09;10.25;;;8.77;;
25419;SDS011;13354;48.174;11.566;2023-06-10T04:40:34;11.65;;;9.23;;
25419;SDS011;13354;48.174;11.566;2023-06-10T04:43:00;9.67;;;8.40;;
25419;SDS011;13354;48.174;11.566;2023-06-10T04:45:25;8.82;;;8.00;;
25419;SDS011;13354;48.174;11.566;2023-06-10T04:47:50;10.07;;;8.98;;
25419;SDS011;13354;48.174;11.566;2023-06-10T04:50:16;11.85;;;8.52;;
25419;SDS011;13354;48.174;11.566;2023-06-10T04:52:41;9.55;;;8.65;;
25419;SDS011;13354;48.174;11.566;2023-06-10T04:55:07;9.80;;;8.90;;
25419;SDS011;13354;48.174;11.566;2023-06-10T04:57:33;10.27;;;8.93;;
25419;SDS011;13354;48.174;11.566;2023-06-10T04:59:59;9.30;;;8.37;;
25419;SDS011;13354;48.174;11.566;2023-06-10T05:02:24;9.98;;;8.73;;
25419;SDS011;13354;48.174;11.566;2023-06-10T05:04:49;9.40;;;8.48;;
25419;SDS011;13354;48.174;11.566;2023-06-10T05:07:15;10.73;;;8.15;;
25419;SDS011;13354;48.174;11.566;2023-06-10T05:09:40;10.50;;;8.98;;
25419;SDS011;13354;48.174;11.566;2023-06-10T05:12:06;10.38;;;8.88;;
25419;SDS011;13354;48.174;11.566;2023-06-10T05:14:31;9.73;;;8.52;;
25419;SDS011;13354;48.174;11.566;2023-06-10T05:16:57;10.10;;;9.15;;
25419;SDS011;13354;48.174;11.566;2023-06-10T05:19:22;10.70;;;9.02;;
25419;SDS011;13354;48.174;11.566;2023-06-10T05:21:47;9.57;;;8.57;;
25419;SDS011;13354;48.174;11.566;2023-06-10T05:24:14;9.57;;;8.57;;
25419;SDS011;13354;48.174;11.566;2023-06-10T05:26:39;10.77;;;8.50;;
25419;SDS011;13354;48.174;11.566;2023-06-10T05:29:06;9.18;;;8.27;;
25419;SDS011;13354;48.174;11.566;2023-06-10T05:31:31;11.63;;;8.88;;
25419;SDS011;13354;48.174;11.566;2023-06-10T05:33:57;10.18;;;9.07;;
25419;SDS011;13354;48.174;11.566;2023-06-10T05:36:23;10.50;;;8.57;;
25419;SDS011;13354;48.174;11.566;2023-06-10T05:38:50;9.93;;;8.95;;
25419;SDS011;13354;48.174;11.566;2023-06-10T05:41:15;9.70;;;8.70;;
25419;SDS011;13354;48.174;11.566;2023-06-10T05:43:40;9.45;;;8.45;;
25419;SDS011;13354;48.174;11.566;2023-06-10T05:46:06;10.07;;;8.67;;
25419;SDS011;13354;48.174;11.566;2023-06-10T05:48:31;10.27;;;8.70;;
25419;SDS011;13354;48.174;11.566;2023-06-10T05:50:56;10.30;;;8.47;;
25419;SDS011;13354;48.174;11.566;2023-06-10T05:53:21;9.80;;;8.88;;
25419;SDS011;13354;48.174;11.566;2023-06-10T05:55:47;10.80;;;9.00;;
25419;SDS011;13354;48.174;11.566;2023-06-10T05:58:13;9.38;;;8.38;;
25419;SDS011;13354;48.174;11.566;2023-06-10T06:00:39;9.63;;;8.63;;
25419;SDS011;13354;48.174;11.566;2023-06-10T06:03:08;10.35;;;9.25;;
25419;SDS011;13354;48.174;11.566;2023-06-10T06:05:34;10.63;;;9.52;;
25419;SDS011;13354;48.174;11.566;2023-06-10T06:08:01;10.75;;;9.02;;
25419;SDS011;13354;48.174;11.566;2023-06-10T06:10:26;10.30;;;9.20;;
25419;SDS011;13354;48.174;11.566;2023-06-10T06:12:52;11.30;;;10.10;;
25419;SDS011;13354;48.174;11.566;2023-06-10T06:15:17;11.95;;;9.63;;
25419;SDS011;13354;48.174;11.566;2023-06-10T06:17:42;12.45;;;10.95;;
25419;SDS011;13354;48.174;11.566;2023-06-10T06:20:08;12.00;;;10.80;;
25419;SDS011;13354;48.174;11.566;2023-06-10T06:22:33;11.55;;;10.35;;
25419;SDS011;13354;48.174;11.566;2023-06-10T06:24:59;11.60;;;10.27;;
25419;SDS011;13354;48.174;11.566;2023-06-10T06:27:24;12.80;;;10.20;;
25419;SDS011;13354;48.174;11.566;2023-06-10T06:29:49;12.88;;;10.32;;
25419;SDS011;13354;48.174;11.566;2023-06-10T06:32:15;12.35;;;10.07;;
25419;SDS011;13354;48.174;11.566;2023-06-10T06:34:41;11.57;;;10.38;;
25419;SDS011;13354;48.174;11.566;2023-06-10T06:37:06;12.40;;;10.57;;
25419;SDS011;13354;48.174;11.566;2023-06-10T06:39:31;12.37;;;10.00;;
25419;SDS011;13354;48.174;11.566;2023-06-10T06:41:56;10.17;;;9.17;;
25419;SDS011;13354;48.174;11.566;2023-06-10T06:44:22;12.52;;;8.98;;
25419;SDS011;13354;48.174;11.566;2023-06-10T06:46:47;9.75;;;8.75;;
25419;SDS011;13354;48.174;11.566;2023-06-10T06:49:12;10.60;;;8.70;;
25419;SDS011;13354;48.174;11.566;2023-06-10T06:51:37;12.38;;;8.88;;
25419;SDS011;13354;48.174;11.566;2023-06-10T06:54:03;14.35;;;9.32;;
25419;SDS011;13354;48.174;11.566;2023-06-10T06:56:30;9.30;;;8.43;;
25419;SDS011;13354;48.174;11.566;2023-06-10T06:58:56;9.35;;;8.45;;
25419;SDS011;13354;48.174;11.566;2023-06-10T07:01:21;9.68;;;8.77;;
25419;SDS011;13354;48.174;11.566;2023-06-10T07:03:46;9.95;;;8.30;;
25419;SDS011;13354;48.174;11.566;2023-06-10T07:06:12;8.45;;;7.65;;
25419;SDS011;13354;48.174;11.566;2023-06-10T07:08:37;9.57;;;7.90;;
25419;SDS011;13354;48.174;11.566;2023-06-10T07:11:03;9.63;;;7.55;;
25419;SDS011;13354;48.174;11.566;2023-06-10T07:13:28;10.20;;;7.55;;
25419;SDS011;13354;48.174;11.566;2023-06-10T07:15:53;8.97;;;7.90;;
25419;SDS011;13354;48.174;11.566;2023-06-10T07:18:18;7.87;;;7.17;;
25419;SDS011;13354;48.174;11.566;2023-06-10T07:20:44;9.00;;;7.32;;
25419;SDS011;13354;48.174;11.566;2023-06-10T07:23:09;7.53;;;6.72;;
25419;SDS011;13354;48.174;11.566;2023-06-10T07:25:34;8.38;;;7.57;;
25419;SDS011;13354;48.174;11.566;2023-06-10T07:28:00;8.13;;;7.28;;
25419;SDS011;13354;48.174;11.566;2023-06-10T07:30:25;8.30;;;6.72;;
25419;SDS011;13354;48.174;11.566;2023-06-10T07:32:51;7.73;;;6.83;;
25419;SDS011;13354;48.174;11.566;2023-06-10T07:35:16;6.93;;;6.05;;
25419;SDS011;13354;48.174;11.566;2023-06-10T07:37:42;9.07;;;6.60;;
25419;SDS011;13354;48.174;11.566;2023-06-10T07:40:07;7.45;;;6.70;;
25419;SDS011;13354;48.174;11.566;2023-06-10T07:42:34;6.28;;;5.68;;
25419;SDS011;13354;48.174;11.566;2023-06-10T07:45:00;5.63;;;5.13;;
25419;SDS011;13354;48.174;11.566;2023-06-10T07:47:26;6.57;;;4.90;;
25419;SDS011;13354;48.174;11.566;2023-06-10T07:49:51;6.47;;;5.80;;
25419;SDS011;13354;48.174;11.566;2023-06-10T07:52:16;6.07;;;5.20;;
25419;SDS011;13354;48.174;11.566;2023-06-10T07:54:42;7.70;;;5.05;;
25419;SDS011;13354;48.174;11.566;2023-06-10T07:57:07;5.33;;;4.70;;
25419;SDS011;13354;48.174;11.566;2023-06-10T07:59:32;5.60;;;5.10;;
25419;SDS011;13354;48.174;11.566;2023-06-10T08:01:58;5.90;;;5.30;;
25419;SDS011;13354;48.174;11.566;2023-06-10T08:04:23;6.85;;;5.25;;
25419;SDS011;13354;48.174;11.566;2023-06-10T08:06:49;6.03;;;4.97;;
25419;SDS011;13354;48.174;11.566;2023-06-10T08:09:14;4.85;;;4.35;;
25419;SDS011;13354;48.174;11.566;2023-06-10T08:11:40;5.45;;;4.10;;
25419;SDS011;13354;48.174;11.566;2023-06-10T08:14:05;5.05;;;4.53;;
25419;SDS011;13354;48.174;11.566;2023-06-10T08:16:31;6.18;;;5.10;;
25419;SDS011;13354;48.174;11.566;2023-06-10T08:18:56;9.70;;;5.13;;
25419;SDS011;13354;48.174;11.566;2023-06-10T08:21:21;6.65;;;4.30;;
25419;SDS011;13354;48.174;11.566;2023-06-10T08:23:47;5.65;;;4.70;;
25419;SDS011;13354;48.174;11.566;2023-06-10T08:26:12;5.00;;;4.50;;
25419;SDS011;13354;48.174;11.566;2023-06-10T08:28:37;4.80;;;4.40;;
25419;SDS011;13354;48.174;11.566;2023-06-10T08:31:02;4.82;;;4.43;;
25419;SDS011;13354;48.174;11.566;2023-06-10T08:33:28;4.70;;;4.30;;
25419;SDS011;13354;48.174;11.566;2023-06-10T08:35:53;36.53;;;20.42;;
25419;SDS011;13354;48.174;11.566;2023-06-10T08:38:18;6.35;;;4.82;;
25419;SDS011;13354;48.174;11.566;2023-06-10T08:40:44;4.97;;;4.18;;
25419;SDS011;13354;48.174;11.566;2023-06-10T08:43:17;4.53;;;4.10;;
25419;SDS011;13354;48.174;11.566;2023-06-10T08:45:47;4.45;;;3.97;;
25419;SDS011;13354;48.174;11.566;2023-06-10T08:48:14;4.40;;;4.00;;
25419;SDS011;13354;48.174;11.566;2023-06-10T08:50:41;4.45;;;4.05;;
25419;SDS011;13354;48.174;11.566;2023-06-10T08:53:07;4.15;;;3.67;;
25419;SDS011;13354;48.174;11.566;2023-06-10T08:55:33;5.28;;;4.07;;
25419;SDS011;13354;48.174;11.566;2023-06-10T08:58:01;3.75;;;3.40;;
25419;SDS011;13354;48.174;11.566;2023-06-10T09:00:27;5.93;;;4.97;;
25419;SDS011;13354;48.174;11.566;2023-06-10T09:02:54;4.20;;;3.80;;
25419;SDS011;13354;48.174;11.566;2023-06-10T09:05:21;7.18;;;3.70;;
25419;SDS011;13354;48.174;11.566;2023-06-10T09:07:47;4.53;;;4.13;;
25419;SDS011;13354;48.174;11.566;2023-06-10T09:10:13;4.78;;;4.28;;
25419;SDS011;13354;48.174;11.566;2023-06-10T09:12:38;4.68;;;4.10;;
25419;SDS011;13354;48.174;11.566;2023-06-10T09:15:04;6.87;;;4.40;;
25419;SDS011;13354;48.174;11.566;2023-06-10T09:17:30;4.30;;;3.97;;
25419;SDS011;13354;48.174;11.566;2023-06-10T09:19:56;5.97;;;3.72;;
25419;SDS011;13354;48.174;11.566;2023-06-10T09:22:22;6.18;;;4.72;;
25419;SDS011;13354;48.174;11.566;2023-06-10T09:24:48;5.60;;;4.72;;
25419;SDS011;13354;48.174;11.566;2023-06-10T09:27:13;4.22;;;3.92;;
25419;SDS011;13354;48.174;11.566;2023-06-10T09:29:46;4.22;;;3.85;;
25419;SDS011;13354;48.174;11.566;2023-06-10T09:32:12;4.30;;;4.00;;
25419;SDS011;13354;48.174;11.566;2023-06-10T09:34:38;4.28;;;3.60;;
25419;SDS011;13354;48.174;11.566;2023-06-10T09:37:04;3.80;;;3.50;;
25419;SDS011;13354;48.174;11.566;2023-06-10T09:39:30;3.88;;;3.58;;
25419;SDS011;13354;48.174;11.566;2023-06-10T09:41:55;4.05;;;3.65;;
25419;SDS011;13354;48.174;11.566;2023-06-10T09:44:21;4.87;;;3.80;;
25419;SDS011;13354;48.174;11.566;2023-06-10T09:46:47;5.00;;;3.42;;
25419;SDS011;13354;48.174;11.566;2023-06-10T09:49:14;5.38;;;3.80;;
25419;SDS011;13354;48.174;11.566;2023-06-10T09:51:51;5.65;;;3.40;;
25419;SDS011;13354;48.174;11.566;2023-06-10T09:54:17;4.32;;;3.70;;
25419;SDS011;13354;48.174;11.566;2023-06-10T09:56:43;6.28;;;5.10;;
25419;SDS011;13354;48.174;11.566;2023-06-10T09:59:12;4.10;;;3.70;;
25419;SDS011;13354;48.174;11.566;2023-06-10T10:01:37;5.03;;;3.20;;
25419;SDS011;13354;48.174;11.566;2023-06-10T10:04:02;3.67;;;3.37;;
25419;SDS011;13354;48.174;11.566;2023-06-10T10:06:29;4.00;;;3.58;;
25419;SDS011;13354;48.174;11.566;2023-06-10T10:08:55;3.45;;;3.15;;
25419;SDS011;13354;48.174;11.566;2023-06-10T10:11:21;6.20;;;3.97;;
25419;SDS011;13354;48.174;11.566;2023-06-10T10:13:48;3.65;;;3.33;;
25419;SDS011;13354;48.174;11.566;2023-06-10T10:16:15;3.58;;;3.28;;
25419;SDS011;13354;48.174;11.566;2023-06-10T10:18:43;4.18;;;3.08;;
25419;SDS011;13354;48.174;11.566;2023-06-10T10:21:16;4.75;;;3.25;;
25419;SDS011;13354;48.174;11.566;2023-06-10T10:26:34;3.38;;;3.00;;
25419;SDS011;13354;48.174;11.566;2023-06-10T10:29:10;3.85;;;3.53;;
25419;SDS011;13354;48.174;11.566;2023-06-10T10:31:42;3.83;;;3.40;;
25419;SDS011;13354;48.174;11.566;2023-06-10T10:34:21;4.25;;;3.45;;
25419;SDS011;13354;48.174;11.566;2023-06-10T10:36:54;3.60;;;3.00;;
25419;SDS011;13354;48.174;11.566;2023-06-10T10:39:20;4.80;;;3.20;;
25419;SDS011;13354;48.174;11.566;2023-06-10T10:41:46;3.38;;;3.08;;
25419;SDS011;13354;48.174;11.566;2023-06-10T10:44:12;3.58;;;2.60;;
25419;SDS011;13354;48.174;11.566;2023-06-10T10:46:42;3.70;;;2.72;;
25419;SDS011;13354;48.174;11.566;2023-06-10T10:49:08;3.42;;;2.40;;
25419;SDS011;13354;48.174;11.566;2023-06-10T10:51:35;2.72;;;2.53;;
25419;SDS011;13354;48.174;11.566;2023-06-10T10:54:11;3.00;;;2.80;;
25419;SDS011;13354;48.174;11.566;2023-06-10T10:56:38;2.85;;;2.65;;
25419;SDS011;13354;48.174;11.566;2023-06-10T10:59:03;2.95;;;2.65;;
25419;SDS011;13354;48.174;11.566;2023-06-10T11:01:42;4.30;;;2.47;;
25419;SDS011;13354;48.174;11.566;2023-06-10T11:04:11;4.15;;;2.65;;
25419;SDS011;13354;48.174;11.566;2023-06-10T11:06:37;3.38;;;2.72;;
25419;SDS011;13354;48.174;11.566;2023-06-10T11:09:24;2.85;;;2.65;;
25419;SDS011;13354;48.174;11.566;2023-06-10T11:11:52;3.75;;;2.80;;
25419;SDS011;13354;48.174;11.566;2023-06-10T11:14:26;3.47;;;3.17;;
25419;SDS011;13354;48.174;11.566;2023-06-10T11:16:58;3.03;;;2.75;;
25419;SDS011;13354;48.174;11.566;2023-06-10T11:19:34;3.15;;;2.42;;
25419;SDS011;13354;48.174;11.566;2023-06-10T11:22:01;3.53;;;2.42;;
25419;SDS011;13354;48.174;11.566;2023-06-10T11:24:28;3.10;;;2.80;;
25419;SDS011;13354;48.174;11.566;2023-06-10T11:26:54;2.78;;;2.30;;
25419;SDS011;13354;48.174;11.566;2023-06-10T11:29:20;5.88;;;4.00;;
25419;SDS011;13354;48.174;11.566;2023-06-10T11:31:48;3.00;;;2.80;;
25419;SDS011;13354;48.174;11.566;2023-06-10T11:34:15;3.17;;;2.65;;
25419;SDS011;13354;48.174;11.566;2023-06-10T11:36:50;2.70;;;2.50;;
25419;SDS011;13354;48.174;11.566;2023-06-10T11:39:16;3.05;;;2.42;;
25419;SDS011;13354;48.174;11.566;2023-06-10T11:41:45;3.55;;;2.30;;
25419;SDS011;13354;48.174;11.566;2023-06-10T11:44:11;2.97;;;2.78;;
25419;SDS011;13354;48.174;11.566;2023-06-10T11:46:37;2.75;;;2.55;;
25419;SDS011;13354;48.174;11.566;2023-06-10T11:49:04;2.85;;;2.65;;
25419;SDS011;13354;48.174;11.566;2023-06-10T11:51:32;2.70;;;2.50;;
25419;SDS011;13354;48.174;11.566;2023-06-10T11:53:59;2.67;;;2.45;;
25419;SDS011;13354;48.174;11.566;2023-06-10T11:56:27;2.22;;;2.03;;
25419;SDS011;13354;48.174;11.566;2023-06-10T12:01:26;2.60;;;2.40;;
25419;SDS011;13354;48.174;11.566;2023-06-10T12:03:58;3.13;;;2.80;;
25419;SDS011;13354;48.174;11.566;2023-06-10T12:06:25;3.40;;;3.10;;
25419;SDS011;13354;48.174;11.566;2023-06-10T12:08:50;3.53;;;3.22;;
25419;SDS011;13354;48.174;11.566;2023-06-10T12:11:16;3.40;;;3.10;;
25419;SDS011;13354;48.174;11.566;2023-06-10T12:13:47;4.35;;;2.95;;
25419;SDS011;13354;48.174;11.566;2023-06-10T12:16:14;3.20;;;2.70;;
25419;SDS011;13354;48.174;11.566;2023-06-10T12:18:41;3.08;;;2.88;;
25419;SDS011;13354;48.174;11.566;2023-06-10T12:21:15;3.33;;;3.03;;
25419;SDS011;13354;48.174;11.566;2023-06-10T12:24:02;3.15;;;2.85;;
25419;SDS011;13354;48.174;11.566;2023-06-10T12:26:37;3.45;;;2.83;;
25419;SDS011;13354;48.174;11.566;2023-06-10T12:31:53;2.60;;;2.40;;
25419;SDS011;13354;48.174;11.566;2023-06-10T12:34:18;3.42;;;3.13;;
25419;SDS011;13354;48.174;11.566;2023-06-10T12:36:49;3.55;;;2.28;;
25419;SDS011;13354;48.174;11.566;2023-06-10T12:39:15;4.95;;;2.40;;
25419;SDS011;13354;48.174;11.566;2023-06-10T12:41:40;5.80;;;2.30;;
25419;SDS011;13354;48.174;11.566;2023-06-10T12:44:11;2.83;;;2.58;;
25419;SDS011;13354;48.174;11.566;2023-06-10T12:46:37;2.50;;;2.30;;
25419;SDS011;13354;48.174;11.566;2023-06-10T12:49:02;2.85;;;2.53;;
25419;SDS011;13354;48.174;11.566;2023-06-10T12:51:27;3.97;;;2.50;;
25419;SDS011;13354;48.174;11.566;2023-06-10T12:53:53;2.47;;;2.27;;
25419;SDS011;13354;48.174;11.566;2023-06-10T12:56:18;3.90;;;2.60;;
25419;SDS011;13354;48.174;11.566;2023-06-10T12:58:43;3.60;;;2.53;;
25419;SDS011;13354;48.174;11.566;2023-06-10T13:01:08;4.60;;;3.40;;
25419;SDS011;13354;48.174;11.566;2023-06-10T13:03:34;5.70;;;3.42;;
25419;SDS011;13354;48.174;11.566;2023-06-10T13:06:00;7.22;;;3.60;;
25419;SDS011;13354;48.174;11.566;2023-06-10T13:08:25;4.20;;;3.30;;
25419;SDS011;13354;48.174;11.566;2023-06-10T13:10:50;3.97;;;3.30;;
25419;SDS011;13354;48.174;11.566;2023-06-10T13:13:15;4.07;;;3.50;;
25419;SDS011;13354;48.174;11.566;2023-06-10T13:15:41;5.80;;;3.60;;
25419;SDS011;13354;48.174;11.566;2023-06-10T13:18:06;4.72;;;3.53;;
25419;SDS011;13354;48.174;11.566;2023-06-10T13:20:32;5.72;;;3.30;;
25419;SDS011;13354;48.174;11.566;2023-06-10T13:22:57;5.07;;;3.83;;
25419;SDS011;13354;48.174;11.566;2023-06-10T13:25:22;3.90;;;3.50;;
25419;SDS011;13354;48.174;11.566;2023-06-10T13:27:48;4.18;;;3.78;;
25419;SDS011;13354;48.174;11.566;2023-06-10T13:30:13;5.80;;;3.45;;
25419;SDS011;13354;48.174;11.566;2023-06-10T13:32:39;4.70;;;3.40;;
25419;SDS011;13354;48.174;11.566;2023-06-10T13:35:04;4.93;;;3.40;;
25419;SDS011;13354;48.174;11.566;2023-06-10T13:37:30;3.50;;;3.20;;
25419;SDS011;13354;48.174;11.566;2023-06-10T13:39:55;3.33;;;3.03;;
25419;SDS011;13354;48.174;11.566;2023-06-10T13:42:20;4.72;;;3.30;;
25419;SDS011;13354;48.174;11.566;2023-06-10T13:44:46;3.13;;;2.83;;
25419;SDS011;13354;48.174;11.566;2023-06-10T13:47:13;6.18;;;2.88;;
25419;SDS011;13354;48.174;11.566;2023-06-10T13:49:42;3.20;;;2.90;;
25419;SDS011;13354;48.174;11.566;2023-06-10T13:52:07;3.85;;;2.90;;
25419;SDS011;13354;48.174;11.566;2023-06-10T13:54:33;4.55;;;3.13;;
25419;SDS011;13354;48.174;11.566;2023-06-10T13:57:00;4.63;;;2.80;;
25419;SDS011;13354;48.174;11.566;2023-06-10T13:59:26;4.57;;;2.90;;
25419;SDS011;13354;48.174;11.566;2023-06-10T14:01:52;3.33;;;2.88;;
25419;SDS011;13354;48.174;11.566;2023-06-10T14:04:17;5.43;;;2.88;;
25419;SDS011;13354;48.174;11.566;2023-06-10T14:06:43;3.17;;;2.88;;
25419;SDS011;13354;48.174;11.566;2023-06-10T14:09:09;3.75;;;3.10;;
25419;SDS011;13354;48.174;11.566;2023-06-10T14:11:35;3.50;;;2.60;;
25419;SDS011;13354;48.174;11.566;2023-06-10T14:14:00;3.47;;;2.93;;
25419;SDS011;13354;48.174;11.566;2023-06-10T14:16:26;3.28;;;2.97;;
25419;SDS011;13354;48.174;11.566;2023-06-10T14:18:51;4.35;;;3.00;;
25419;SDS011;13354;48.174;11.566;2023-06-10T14:21:17;3.77;;;3.47;;
25419;SDS011;13354;48.174;11.566;2023-06-10T14:23:42;3.40;;;3.10;;
25419;SDS011;13354;48.174;11.566;2023-06-10T14:26:10;4.28;;;2.80;;
25419;SDS011;13354;48.174;11.566;2023-06-10T14:28:36;3.15;;;2.88;;
25419;SDS011;13354;48.174;11.566;2023-06-10T14:31:01;3.53;;;3.22;;
25419;SDS011;13354;48.174;11.566;2023-06-10T14:33:27;3.70;;;2.88;;
25419;SDS011;13354;48.174;11.566;2023-06-10T14:35:52;6.07;;;2.83;;
25419;SDS011;13354;48.174;11.566;2023-06-10T14:38:18;3.17;;;2.80;;
25419;SDS011;13354;48.174;11.566;2023-06-10T14:40:43;3.20;;;2.42;;
25419;SDS011;13354;48.174;11.566;2023-06-10T14:43:09;6.25;;;2.78;;
25419;SDS011;13354;48.174;11.566;2023-06-10T14:45:38;4.35;;;2.60;;
25419;SDS011;13354;48.174;11.566;2023-06-10T14:48:05;3.60;;;2.65;;